Terminal Aerodrome Forecast
Issued by NWS

Home | Current Version | Previous Version | Text Only | Print | Product List | Glossary On
Versions: 1 2 3 4 5 6 7 8 9 10 11 12 13 14 15 16 17 18
000
FTUS46 KHNX 292010 AAA
TAFMER
TAF AMD
KMER 292010Z 2920/3018 00000KT 1/4SM FG OVC001
     FM292100 VRB03KT 1SM BR SCT005 SCT150
     FM292200 33005KT 4SM HZ FEW150
     FM300300 VRB03KT 2SM BR FEW150
     FM300600 00000KT 1/4SM FG VV001=

USA.gov is the U.S. government's official web portal to all federal, state and local government web resources and services.